createdAt,value
2018-11-29T00:00:32.283Z,93.40
2018-11-29T00:03:00.845Z,106.13
2018-11-29T00:05:29.642Z,88.63
2018-11-29T00:07:58.200Z,88.43
2018-11-29T00:10:26.765Z,85.80
2018-11-29T00:12:55.300Z,89.07
2018-11-29T00:15:24.191Z,80.70
2018-11-29T00:17:52.770Z,74.77
2018-11-29T00:20:21.680Z,72.23
2018-11-29T00:22:51.065Z,72.90
2018-11-29T00:25:20.385Z,62.63
2018-11-29T00:27:48.975Z,61.27
2018-11-29T00:30:21.678Z,65.53
2018-11-29T00:32:50.955Z,66.80
2018-11-29T00:35:19.621Z,66.87
2018-11-29T00:37:48.137Z,59.23
2018-11-29T00:40:21.023Z,62.97
2018-11-29T00:42:49.568Z,60.57
2018-11-29T00:45:19.105Z,64.37
2018-11-29T00:47:48.081Z,56.57
2018-11-29T00:50:17.400Z,73.93
2018-11-29T00:52:46.934Z,59.23
2018-11-29T00:55:17.524Z,58.17
2018-11-29T00:57:46.070Z,49.33
2018-11-29T01:00:25.842Z,47.03
2018-11-29T01:02:54.383Z,45.87
2018-11-29T01:05:22.961Z,45.10
2018-11-29T01:07:51.508Z,44.20
2018-11-29T01:10:20.440Z,47.50
2018-11-29T01:12:49.361Z,42.03
2018-11-29T01:15:19.259Z,43.50
2018-11-29T01:17:48.691Z,50.47
2018-11-29T01:20:18.296Z,40.83
2018-11-29T01:22:46.864Z,44.77
2018-11-29T01:25:16.270Z,42.20
2018-11-29T01:27:45.977Z,41.77
2018-11-29T01:30:15.422Z,41.07
2018-11-29T01:32:43.972Z,42.20
2018-11-29T01:35:13.559Z,42.23
2018-11-29T01:37:42.083Z,46.47
2018-11-29T01:40:16.414Z,43.80
2018-11-29T01:42:47.049Z,41.00
2018-11-29T01:45:15.613Z,48.67
2018-11-29T01:47:44.244Z,42.23
2018-11-29T01:50:12.991Z,39.97
2018-11-29T01:52:41.550Z,41.57
2018-11-29T01:55:10.375Z,43.37
2018-11-29T01:57:38.906Z,45.77
2018-11-29T02:00:11.223Z,40.80
2018-11-29T02:02:39.770Z,44.53
2018-11-29T02:05:09.637Z,43.63
2018-11-29T02:07:39.094Z,44.43
2018-11-29T02:10:16.401Z,45.73
2018-11-29T02:12:44.974Z,46.50
2018-11-29T02:15:13.582Z,40.67
2018-11-29T02:17:42.127Z,43.67
2018-11-29T02:20:16.711Z,40.03
2018-11-29T02:22:45.358Z,45.27
2018-11-29T02:25:13.978Z,43.80
2018-11-29T02:27:42.530Z,41.63
2018-11-29T02:30:20.609Z,38.57
2018-11-29T02:32:49.272Z,42.03
2018-11-29T02:35:18.065Z,41.07
2018-11-29T02:37:46.589Z,35.77
2018-11-29T02:40:16.181Z,38.47
2018-11-29T02:42:44.916Z,40.10
2018-11-29T02:45:16.058Z,47.00
2018-11-29T02:47:44.633Z,40.43
2018-11-29T02:50:13.485Z,42.03
2018-11-29T02:52:42.001Z,38.00
2018-11-29T02:55:11.773Z,37.97
2018-11-29T02:57:40.684Z,40.73
2018-11-29T03:00:15.418Z,40.80
2018-11-29T03:02:43.963Z,47.20
2018-11-29T03:05:12.567Z,40.80
2018-11-29T03:07:41.109Z,37.20
2018-11-29T03:10:10.984Z,39.87
2018-11-29T03:12:39.578Z,41.57
2018-11-29T03:15:15.320Z,36.27
2018-11-29T03:17:44.485Z,35.77
2018-11-29T03:20:13.975Z,37.00
2018-11-29T03:22:42.569Z,36.17
2018-11-29T03:25:14.327Z,35.43
2018-11-29T03:27:42.991Z,37.23
2018-11-29T03:30:12.588Z,35.23
2018-11-29T03:32:41.232Z,39.70
2018-11-29T03:35:10.912Z,36.23
2018-11-29T03:37:39.503Z,38.50
2018-11-29T03:40:09.737Z,40.27
2018-11-29T03:42:38.273Z,42.23
2018-11-29T03:45:08.838Z,36.73
2018-11-29T03:47:37.570Z,35.33
2018-11-29T03:50:12.672Z,34.50
2018-11-29T03:52:41.229Z,47.60
2018-11-29T03:55:10.578Z,40.03
2018-11-29T03:57:39.680Z,35.37
2018-11-29T04:00:12.565Z,31.87
2018-11-29T04:02:41.109Z,33.63
2018-11-29T04:07:33.926Z,38.63
2018-11-29T04:10:02.564Z,31.57
2018-11-29T04:12:31.310Z,35.37
2018-11-29T04:14:59.834Z,26.17
2018-11-29T04:17:28.398Z,29.07
2018-11-29T04:19:56.928Z,31.57
2018-11-29T04:22:25.804Z,28.33
2018-11-29T04:24:54.361Z,31.23
2018-11-29T04:27:22.928Z,32.30
2018-11-29T04:29:51.532Z,30.73
2018-11-29T04:32:20.106Z,28.50
2018-11-29T04:34:48.618Z,26.33
2018-11-29T04:37:17.539Z,30.07
2018-11-29T04:39:46.123Z,23.77
2018-11-29T04:42:15.044Z,31.60
2018-11-29T04:44:43.616Z,31.40
2018-11-29T04:47:12.194Z,25.33
2018-11-29T04:49:40.754Z,28.03
2018-11-29T04:52:09.611Z,27.27
2018-11-29T04:54:38.187Z,28.90
2018-11-29T04:57:06.797Z,27.57
2018-11-29T04:59:35.387Z,28.30
2018-11-29T05:02:04.171Z,25.37
2018-11-29T05:04:32.742Z,28.10
2018-11-29T05:07:01.652Z,27.03
2018-11-29T05:09:30.218Z,30.47
2018-11-29T05:11:58.783Z,25.07
2018-11-29T05:14:27.391Z,27.87
2018-11-29T05:16:56.032Z,23.27
2018-11-29T05:19:24.622Z,25.20
2018-11-29T05:21:53.495Z,29.37
2018-11-29T05:24:22.070Z,23.87
2018-11-29T05:26:50.719Z,30.00
2018-11-29T05:29:19.393Z,50.07
2018-11-29T05:31:47.929Z,58.70
2018-11-29T05:34:16.462Z,42.10
2018-11-29T05:36:45.050Z,34.40
2018-11-29T05:39:13.590Z,52.47
2018-11-29T05:41:42.134Z,25.87
2018-11-29T05:44:10.752Z,30.83
2018-11-29T05:46:39.538Z,24.43
2018-11-29T05:49:08.042Z,28.23
2018-11-29T05:51:36.688Z,30.47
2018-11-29T05:54:05.570Z,28.20
2018-11-29T05:56:34.539Z,25.70
2018-11-29T05:59:03.056Z,28.00
2018-11-29T06:01:36.400Z,47.87
2018-11-29T06:04:04.902Z,46.80
2018-11-29T06:06:33.691Z,59.23
2018-11-29T06:09:02.290Z,60.23
2018-11-29T06:11:30.992Z,46.97
2018-11-29T06:13:59.512Z,49.93
2018-11-29T06:16:28.095Z,50.07
2018-11-29T06:18:56.635Z,43.97
2018-11-29T06:21:25.197Z,34.83
2018-11-29T06:23:53.759Z,30.57
2018-11-29T06:26:22.595Z,38.43
2018-11-29T06:28:51.158Z,40.10
2018-11-29T06:31:19.752Z,33.07
2018-11-29T06:33:48.261Z,30.73
2018-11-29T06:36:17.023Z,26.63
2018-11-29T06:38:45.623Z,24.67
2018-11-29T06:41:14.144Z,27.83
2018-11-29T06:43:42.721Z,27.23
2018-11-29T06:46:11.263Z,25.93
2018-11-29T06:48:39.780Z,26.83
2018-11-29T06:51:08.554Z,23.87
2018-11-29T06:53:42.436Z,27.73
2018-11-29T06:56:11.137Z,28.47
2018-11-29T06:58:39.657Z,23.33
2018-11-29T07:01:08.438Z,29.00
2018-11-29T07:03:36.972Z,20.67
2018-11-29T07:06:06.866Z,25.30
2018-11-29T07:08:35.430Z,28.87
2018-11-29T07:11:04.308Z,26.27
2018-11-29T07:13:32.799Z,29.80
2018-11-29T07:16:01.350Z,29.40
2018-11-29T07:18:29.876Z,28.50
2018-11-29T07:21:09.824Z,29.60
2018-11-29T07:23:38.355Z,33.27
2018-11-29T07:26:07.266Z,26.20
2018-11-29T07:28:35.769Z,36.03
2018-11-29T07:31:04.453Z,34.10
2018-11-29T07:33:32.953Z,24.60
2018-11-29T07:36:01.681Z,27.57
2018-11-29T07:38:30.241Z,31.23
2018-11-29T07:40:58.953Z,31.20
2018-11-29T07:43:27.500Z,29.00
2018-11-29T07:45:56.080Z,28.90
2018-11-29T07:48:24.797Z,32.03
2018-11-29T07:50:53.354Z,30.77
2018-11-29T07:53:21.891Z,30.87
2018-11-29T07:55:50.471Z,29.50
2018-11-29T07:58:19.068Z,25.60
2018-11-29T08:00:47.630Z,38.00
2018-11-29T08:03:16.145Z,30.80
2018-11-29T08:05:44.671Z,26.87
2018-11-29T08:08:13.257Z,29.50
2018-11-29T08:10:41.797Z,25.70
2018-11-29T08:13:10.343Z,25.53
2018-11-29T08:15:39.025Z,31.97
2018-11-29T08:18:07.742Z,28.90
2018-11-29T08:20:36.531Z,23.43
2018-11-29T08:23:05.286Z,29.23
2018-11-29T08:25:33.863Z,28.73
2018-11-29T08:28:02.366Z,26.37
2018-11-29T08:30:31.088Z,23.90
2018-11-29T08:32:59.601Z,27.23
2018-11-29T08:35:28.353Z,29.43
2018-11-29T08:37:56.872Z,32.40
2018-11-29T08:40:25.445Z,26.13
2018-11-29T08:42:53.961Z,27.27
2018-11-29T08:45:22.577Z,25.67
2018-11-29T08:47:51.081Z,27.17
2018-11-29T08:50:19.789Z,27.77
2018-11-29T08:52:48.295Z,27.43
2018-11-29T08:55:17.749Z,23.17
2018-11-29T08:57:47.010Z,26.77
2018-11-29T09:00:18.950Z,28.70
2018-11-29T09:02:47.489Z,22.10
2018-11-29T09:05:16.086Z,24.83
2018-11-29T09:07:45.697Z,29.83
2018-11-29T09:10:15.526Z,23.40
2018-11-29T09:12:44.017Z,24.73
2018-11-29T09:15:13.893Z,23.30
2018-11-29T09:17:42.487Z,25.20
2018-11-29T09:20:12.369Z,32.77
2018-11-29T09:22:41.093Z,23.27
2018-11-29T09:25:10.929Z,35.10
2018-11-29T09:27:39.458Z,35.13
2018-11-29T09:30:20.212Z,35.27
2018-11-29T09:32:49.788Z,34.57
2018-11-29T09:35:18.328Z,23.37
2018-11-29T09:37:47.139Z,39.03
2018-11-29T09:40:16.860Z,30.30
2018-11-29T09:42:45.549Z,32.23
2018-11-29T09:45:18.123Z,27.23
2018-11-29T09:47:48.003Z,26.03
2018-11-29T09:50:17.185Z,23.60
2018-11-29T09:52:45.741Z,26.87
2018-11-29T09:55:15.187Z,25.73
2018-11-29T09:57:44.302Z,27.40
2018-11-29T10:00:18.715Z,22.50
2018-11-29T10:02:49.946Z,30.10
2018-11-29T10:05:18.493Z,24.07
2018-11-29T10:07:47.032Z,23.13
2018-11-29T10:10:15.611Z,28.07
2018-11-29T10:12:44.171Z,32.00
2018-11-29T10:15:13.422Z,29.50
2018-11-29T10:17:41.994Z,26.03
2018-11-29T10:20:12.688Z,23.00
2018-11-29T10:22:42.109Z,28.17
2018-11-29T10:25:12.013Z,22.97
2018-11-29T10:27:41.225Z,25.83
2018-11-29T10:30:12.987Z,21.80
2018-11-29T10:32:41.514Z,21.07
2018-11-29T10:35:10.146Z,27.57
2018-11-29T10:37:38.674Z,23.80
2018-11-29T10:40:09.034Z,31.13
2018-11-29T10:42:37.557Z,28.60
2018-11-29T10:45:12.184Z,22.40
2018-11-29T10:47:41.182Z,18.30
2018-11-29T10:50:12.221Z,18.77
2018-11-29T10:52:40.738Z,17.30
2018-11-29T10:55:15.375Z,17.70
2018-11-29T10:57:43.967Z,19.20
2018-11-29T11:00:24.803Z,21.00
2018-11-29T11:02:59.546Z,26.50
2018-11-29T11:05:28.452Z,19.70
2018-11-29T11:07:56.982Z,19.53
2018-11-29T11:10:25.826Z,21.50
2018-11-29T11:12:54.374Z,17.30
2018-11-29T11:15:22.929Z,22.73
2018-11-29T11:17:51.512Z,20.13
2018-11-29T11:20:20.090Z,27.43
2018-11-29T11:22:48.633Z,28.40
2018-11-29T11:25:17.461Z,26.70
2018-11-29T11:27:45.974Z,22.07
2018-11-29T11:30:17.477Z,26.50
2018-11-29T11:32:47.316Z,24.47
2018-11-29T11:35:15.926Z,30.10
2018-11-29T11:37:44.480Z,19.90
2018-11-29T11:40:15.250Z,19.50
2018-11-29T11:42:44.405Z,17.60
2018-11-29T11:45:15.993Z,25.37
2018-11-29T11:47:44.673Z,21.43
2018-11-29T11:50:17.451Z,23.63
2018-11-29T11:52:46.003Z,23.83
2018-11-29T11:55:18.915Z,21.70
2018-11-29T11:57:43.822Z,24.20
2018-11-29T12:00:32.087Z,25.93
2018-11-29T12:03:05.642Z,24.57
2018-11-29T12:05:34.454Z,28.53
2018-11-29T12:08:03.103Z,22.77
2018-11-29T12:10:32.046Z,20.77
2018-11-29T12:13:00.584Z,21.73
2018-11-29T12:15:29.163Z,23.07
2018-11-29T12:17:57.726Z,24.17
2018-11-29T12:20:26.461Z,21.97
2018-11-29T12:22:54.981Z,26.27
2018-11-29T12:25:23.646Z,25.13
2018-11-29T12:27:52.659Z,21.57
2018-11-29T12:30:23.577Z,26.77
2018-11-29T12:32:53.174Z,19.83
2018-11-29T12:35:21.912Z,25.07
2018-11-29T12:37:50.437Z,23.63
2018-11-29T12:40:19.189Z,26.80
2018-11-29T12:42:47.805Z,25.67
2018-11-29T12:45:16.369Z,26.97
2018-11-29T12:47:44.904Z,28.17
2018-11-29T12:50:19.682Z,27.27
2018-11-29T12:52:48.216Z,26.83
2018-11-29T12:55:18.141Z,24.30
2018-11-29T12:57:46.701Z,26.00
2018-11-29T13:00:16.489Z,26.43
2018-11-29T13:02:49.998Z,29.30
2018-11-29T13:05:18.984Z,20.03
2018-11-29T13:07:47.635Z,25.87
2018-11-29T13:10:17.599Z,24.00
2018-11-29T13:12:46.290Z,27.43
2018-11-29T13:15:18.294Z,25.40
2018-11-29T13:17:48.817Z,31.07
2018-11-29T13:20:17.990Z,26.13
2018-11-29T13:22:46.619Z,23.80
2018-11-29T13:25:17.260Z,28.33
2018-11-29T13:27:45.905Z,26.80
2018-11-29T13:30:16.604Z,24.13
2018-11-29T13:32:45.410Z,24.10
2018-11-29T13:35:16.021Z,30.67
2018-11-29T13:37:46.357Z,24.43
2018-11-29T13:40:14.924Z,27.17
2018-11-29T13:42:43.422Z,32.70
2018-11-29T13:45:12.110Z,30.37
2018-11-29T13:47:41.333Z,28.43
2018-11-29T13:50:14.028Z,28.93
2018-11-29T13:52:42.663Z,30.33
2018-11-29T13:55:13.107Z,28.23
2018-11-29T13:57:42.754Z,31.23
2018-11-29T14:00:16.606Z,27.43
2018-11-29T14:02:47.110Z,27.90
2018-11-29T14:05:14.836Z,32.53
2018-11-29T14:07:43.403Z,29.17
2018-11-29T14:10:16.250Z,26.70
2018-11-29T14:12:45.405Z,27.17
2018-11-29T14:15:18.198Z,29.20
2018-11-29T14:17:46.781Z,28.80
2018-11-29T14:20:15.385Z,34.40
2018-11-29T14:22:44.049Z,45.50
2018-11-29T14:25:13.690Z,58.00
2018-11-29T14:27:43.429Z,50.27
2018-11-29T14:30:15.113Z,107.13
2018-11-29T14:32:43.692Z,100.30
2018-11-29T14:35:12.748Z,87.20
2018-11-29T14:37:41.312Z,45.67
2018-11-29T14:40:12.180Z,41.87
2018-11-29T14:42:40.962Z,47.37
2018-11-29T14:45:11.774Z,42.70
2018-11-29T14:47:40.294Z,46.43
2018-11-29T14:50:18.396Z,43.47
2018-11-29T14:52:47.009Z,41.93
2018-11-29T14:55:15.498Z,37.90
2018-11-29T14:57:44.035Z,34.70
2018-11-29T15:00:13.380Z,34.67
2018-11-29T15:02:42.438Z,36.13
2018-11-29T15:05:19.135Z,36.03
2018-11-29T15:07:47.848Z,35.67
2018-11-29T15:10:16.413Z,36.90
2018-11-29T15:12:44.959Z,38.10
2018-11-29T15:15:14.204Z,48.77
2018-11-29T15:17:43.706Z,37.43
2018-11-29T15:20:17.905Z,46.43
2018-11-29T15:22:47.322Z,55.47
2018-11-29T15:25:15.023Z,67.00
2018-11-29T15:27:43.570Z,57.67
2018-11-29T15:30:13.601Z,50.40
2018-11-29T15:32:42.251Z,50.47
2018-11-29T15:35:11.025Z,56.57
2018-11-29T15:37:39.716Z,55.30
2018-11-29T15:40:14.737Z,60.33
2018-11-29T15:42:43.370Z,60.83
2018-11-29T15:45:17.205Z,55.33
2018-11-29T15:47:45.905Z,39.57
2018-11-29T15:50:15.308Z,44.80
2018-11-29T15:52:44.882Z,51.10
2018-11-29T15:55:16.715Z,43.60
2018-11-29T15:57:46.618Z,46.03
2018-11-29T16:00:20.597Z,41.70
2018-11-29T16:02:49.704Z,41.63
2018-11-29T16:05:18.360Z,47.40
2018-11-29T16:07:46.951Z,43.70
2018-11-29T16:10:16.938Z,53.17
2018-11-29T16:12:45.522Z,46.17
2018-11-29T16:15:14.989Z,47.27
2018-11-29T16:17:44.064Z,46.80
2018-11-29T16:20:17.497Z,48.10
2018-11-29T16:22:46.026Z,49.37
2018-11-29T16:25:14.820Z,54.27
2018-11-29T16:27:43.475Z,49.63
2018-11-29T16:30:18.956Z,47.83
2018-11-29T16:32:47.523Z,49.05
2018-11-29T16:35:16.272Z,51.33
2018-11-29T16:37:44.900Z,50.47
2018-11-29T16:40:13.756Z,44.37
2018-11-29T16:42:42.270Z,46.40
2018-11-29T16:45:13.312Z,45.87
2018-11-29T16:47:42.632Z,49.07
2018-11-29T16:50:12.744Z,43.97
2018-11-29T16:52:41.287Z,49.50
2018-11-29T16:55:11.146Z,51.47
2018-11-29T16:57:41.308Z,45.33
2018-11-29T17:00:15.861Z,49.37
2018-11-29T17:02:44.530Z,50.23
2018-11-29T17:05:14.241Z,51.27
2018-11-29T17:07:42.855Z,49.63
2018-11-29T17:10:14.663Z,51.43
2018-11-29T17:12:44.717Z,51.43
2018-11-29T17:15:16.478Z,50.23
2018-11-29T17:17:45.140Z,43.90
2018-11-29T17:22:57.638Z,48.60
2018-11-29T17:25:26.505Z,44.70
2018-11-29T17:27:55.182Z,43.70
2018-11-29T17:30:24.729Z,45.10
2018-11-29T17:32:54.471Z,40.20
2018-11-29T17:35:23.345Z,42.47
2018-11-29T17:37:52.512Z,48.47
2018-11-29T17:40:21.720Z,42.70
2018-11-29T17:42:51.460Z,49.10
2018-11-29T17:45:21.565Z,46.57
2018-11-29T17:47:51.250Z,42.23
2018-11-29T17:50:22.511Z,46.27
2018-11-29T17:52:51.094Z,42.87
2018-11-29T17:55:19.768Z,48.30
2018-11-29T17:57:48.490Z,47.20
2018-11-29T18:00:18.818Z,46.73
2018-11-29T18:02:47.523Z,42.87
2018-11-29T18:05:16.053Z,57.40
2018-11-29T18:07:44.592Z,58.73
2018-11-29T18:10:19.437Z,65.17
2018-11-29T18:12:49.593Z,64.73
2018-11-29T18:15:20.675Z,59.80
2018-11-29T18:17:49.304Z,53.60
2018-11-29T18:20:17.878Z,73.33
2018-11-29T18:22:46.470Z,92.27
2018-11-29T18:25:16.168Z,142.13
2018-11-29T18:27:46.228Z,160.37
2018-11-29T18:30:16.034Z,160.23
2018-11-29T18:32:44.602Z,150.80
2018-11-29T18:35:13.928Z,173.53
2018-11-29T18:37:42.525Z,166.50
2018-11-29T18:40:17.610Z,155.73
2018-11-29T18:42:47.518Z,157.77
2018-11-29T18:45:17.241Z,153.67
2018-11-29T18:47:46.892Z,139.30
2018-11-29T18:50:16.780Z,125.10
2018-11-29T18:52:45.455Z,121.30
2018-11-29T18:55:14.123Z,128.90
2018-11-29T18:57:42.801Z,87.83
2018-11-29T19:00:17.047Z,99.20
2018-11-29T19:02:46.386Z,72.27
2018-11-29T19:05:15.539Z,79.03
2018-11-29T19:07:44.302Z,67.47
2018-11-29T19:10:14.811Z,58.87
2018-11-29T19:13:15.430Z,60.97
2018-11-29T19:15:44.420Z,69.13
2018-11-29T19:18:12.956Z,63.87
2018-11-29T19:20:42.501Z,61.20
2018-11-29T19:23:11.050Z,58.23
2018-11-29T19:25:40.613Z,56.97
2018-11-29T19:28:09.158Z,63.33
2018-11-29T19:30:38.380Z,57.07
2018-11-29T19:33:27.196Z,60.77
2018-11-29T19:35:56.322Z,52.63
2018-11-29T19:38:24.942Z,57.43
2018-11-29T19:40:53.897Z,61.17
2018-11-29T19:43:22.433Z,68.63
2018-11-29T19:45:51.574Z,60.03
2018-11-29T19:48:20.540Z,61.13
2018-11-29T19:50:49.263Z,60.13
2018-11-29T19:53:20.335Z,56.50
2018-11-29T19:55:50.007Z,57.10
2018-11-29T19:58:18.557Z,60.17
2018-11-29T20:00:47.624Z,64.97
2018-11-29T20:03:16.228Z,59.67
2018-11-29T20:05:44.961Z,59.97
2018-11-29T20:08:13.573Z,60.03
2018-11-29T20:10:42.498Z,56.03
2018-11-29T20:13:12.692Z,57.17
2018-11-29T20:15:43.058Z,61.63
2018-11-29T20:18:12.855Z,62.77
2018-11-29T20:20:41.859Z,62.17
2018-11-29T20:23:11.571Z,59.63
2018-11-29T20:25:41.560Z,55.23
2018-11-29T20:28:10.103Z,53.13
2018-11-29T20:30:38.937Z,60.00
2018-11-29T20:33:07.671Z,54.77
2018-11-29T20:35:36.437Z,50.13
2018-11-29T20:38:05.621Z,58.33
2018-11-29T20:40:36.057Z,57.40
2018-11-29T20:43:05.061Z,69.43
2018-11-29T20:45:37.299Z,53.00
2018-11-29T20:48:11.850Z,57.87
2018-11-29T20:50:40.676Z,70.30
2018-11-29T20:53:10.506Z,99.03
2018-11-29T20:55:39.632Z,117.87
2018-11-29T20:58:08.812Z,130.87
2018-11-29T21:00:38.466Z,72.57
2018-11-29T21:03:08.960Z,74.10
2018-11-29T21:05:40.173Z,69.07
2018-11-29T21:08:10.064Z,63.13
2018-11-29T21:10:38.962Z,67.43
2018-11-29T21:13:08.437Z,61.13
2018-11-29T21:15:39.983Z,66.03
2018-11-29T21:18:10.124Z,64.27
2018-11-29T21:20:40.263Z,62.90
2018-11-29T21:23:10.981Z,56.70
2018-11-29T21:25:40.475Z,61.67
2018-11-29T21:28:09.942Z,56.27
2018-11-29T21:30:38.975Z,62.33
2018-11-29T21:33:09.346Z,61.60
2018-11-29T21:35:38.912Z,64.60
2018-11-29T21:38:25.078Z,67.27
2018-11-29T21:41:00.747Z,67.17
2018-11-29T21:43:29.708Z,59.10
2018-11-29T21:45:58.959Z,62.80
2018-11-29T21:48:27.721Z,62.73
2018-11-29T21:50:56.553Z,66.90
2018-11-29T21:53:25.211Z,63.60
2018-11-29T21:55:53.859Z,73.77
2018-11-29T21:58:22.471Z,76.70
2018-11-29T22:00:51.971Z,69.97
2018-11-29T22:03:21.067Z,70.93
2018-11-29T22:05:50.186Z,78.50
2018-11-29T22:08:19.290Z,79.37
2018-11-29T22:10:47.965Z,76.43
2018-11-29T22:13:16.691Z,87.87
2018-11-29T22:15:45.554Z,96.67
2018-11-29T22:18:19.021Z,93.00
2018-11-29T22:20:52.111Z,94.10
2018-11-29T22:23:20.819Z,91.33
2018-11-29T22:25:49.536Z,73.03
2018-11-29T22:28:18.153Z,80.03
2018-11-29T22:30:46.747Z,85.07
2018-11-29T22:33:15.297Z,82.17
2018-11-29T22:35:44.396Z,83.33
2018-11-29T22:38:13.037Z,80.60
2018-11-29T22:40:41.953Z,74.90
2018-11-29T22:43:10.718Z,83.83
2018-11-29T22:45:39.820Z,91.80
2018-11-29T22:48:08.545Z,91.87
2018-11-29T22:50:37.651Z,81.47
2018-11-29T22:53:06.460Z,73.63
2018-11-29T22:55:35.206Z,81.30
2018-11-29T22:58:03.808Z,79.20
2018-11-29T23:00:37.725Z,76.60
2018-11-29T23:03:06.345Z,79.87
2018-11-29T23:05:35.290Z,74.50
2018-11-29T23:08:03.982Z,73.33
2018-11-29T23:10:32.763Z,73.23
2018-11-29T23:13:01.337Z,72.33
2018-11-29T23:15:30.245Z,69.33
2018-11-29T23:17:58.759Z,93.67
2018-11-29T23:20:27.352Z,75.80
2018-11-29T23:22:55.922Z,82.87
2018-11-29T23:25:24.486Z,75.67
2018-11-29T23:27:53.177Z,85.67
2018-11-29T23:30:22.009Z,90.10
2018-11-29T23:32:50.561Z,88.43
2018-11-29T23:35:19.175Z,79.73
2018-11-29T23:37:47.690Z,77.93
2018-11-29T23:40:17.929Z,69.47
2018-11-29T23:42:46.761Z,64.07
2018-11-29T23:45:15.760Z,60.10
2018-11-29T23:47:44.341Z,65.83
2018-11-29T23:50:14.971Z,65.00
2018-11-29T23:52:43.583Z,66.53
2018-11-29T23:55:18.697Z,59.63
2018-11-29T23:57:47.239Z,57.83
